sensor_id;sensor_type;location;lat;lon;timestamp;pressure;altitude;pressure_sealevel;temperature;humidity
22930;BME280;11630;42.660;23.292;2023-07-30T00:00:43;69967.47;;;21.92;66.97
22930;BME280;11630;42.660;23.292;2023-07-30T00:03:13;69965.77;;;21.98;67.13
22930;BME280;11630;42.660;23.292;2023-07-30T00:05:52;69989.44;;;22.12;66.99
22930;BME280;11630;42.660;23.292;2023-07-30T00:08:23;70005.92;;;22.27;67.18
22930;BME280;11630;42.660;23.292;2023-07-30T00:10:52;70000.47;;;22.17;67.22
22930;BME280;11630;42.660;23.292;2023-07-30T00:13:23;69994.51;;;22.02;66.86
22930;BME280;11630;42.660;23.292;2023-07-30T00:15:54;69989.48;;;22.07;66.86
22930;BME280;11630;42.660;23.292;2023-07-30T00:18:28;69957.79;;;21.92;67.48
22930;BME280;11630;42.660;23.292;2023-07-30T00:20:59;69931.47;;;21.64;68.14
22930;BME280;11630;42.660;23.292;2023-07-30T00:23:29;69908.09;;;21.44;68.93
22930;BME280;11630;42.660;23.292;2023-07-30T00:26:00;69894.92;;;21.32;69.85
22930;BME280;11630;42.660;23.292;2023-07-30T00:28:31;69895.23;;;21.28;69.91
22930;BME280;11630;42.660;23.292;2023-07-30T00:31:02;69891.90;;;21.30;69.77
22930;BME280;11630;42.660;23.292;2023-07-30T00:33:32;69893.82;;;21.31;70.08
22930;BME280;11630;42.660;23.292;2023-07-30T00:36:04;69932.91;;;21.54;69.83
22930;BME280;11630;42.660;23.292;2023-07-30T00:38:36;69940.78;;;21.74;68.56
22930;BME280;11630;42.660;23.292;2023-07-30T00:41:10;69969.98;;;21.88;68.21
22930;BME280;11630;42.660;23.292;2023-07-30T00:43:41;69907.03;;;21.38;69.32
22930;BME280;11630;42.660;23.292;2023-07-30T00:46:13;69941.43;;;21.63;68.92
22930;BME280;11630;42.660;23.292;2023-07-30T00:48:44;69944.95;;;21.72;68.87
22930;BME280;11630;42.660;23.292;2023-07-30T00:51:16;69965.31;;;21.85;68.35
22930;BME280;11630;42.660;23.292;2023-07-30T00:53:46;69969.09;;;21.96;68.15
22930;BME280;11630;42.660;23.292;2023-07-30T00:56:17;69953.39;;;21.88;68.09
22930;BME280;11630;42.660;23.292;2023-07-30T00:58:49;69963.02;;;21.96;67.72
22930;BME280;11630;42.660;23.292;2023-07-30T01:01:23;69949.84;;;21.81;68.29
22930;BME280;11630;42.660;23.292;2023-07-30T01:03:58;69946.92;;;21.68;68.92
22930;BME280;11630;42.660;23.292;2023-07-30T01:06:29;69941.34;;;21.72;68.21
22930;BME280;11630;42.660;23.292;2023-07-30T01:08:59;69952.08;;;21.81;67.40
22930;BME280;11630;42.660;23.292;2023-07-30T01:11:30;69958.69;;;21.84;67.37
22930;BME280;11630;42.660;23.292;2023-07-30T01:14:00;69897.13;;;21.34;68.85
22930;BME280;11630;42.660;23.292;2023-07-30T01:16:29;69897.13;;;21.34;68.85
22930;BME280;11630;42.660;23.292;2023-07-30T01:19:00;69895.74;;;21.31;69.89
22930;BME280;11630;42.660;23.292;2023-07-30T01:21:37;69912.45;;;21.53;69.17
22930;BME280;11630;42.660;23.292;2023-07-30T01:24:08;69906.97;;;21.48;69.45
22930;BME280;11630;42.660;23.292;2023-07-30T01:26:45;69925.97;;;21.59;69.09
22930;BME280;11630;42.660;23.292;2023-07-30T01:29:21;69910.86;;;21.44;69.88
22930;BME280;11630;42.660;23.292;2023-07-30T01:31:55;69900.13;;;21.38;70.11
22930;BME280;11630;42.660;23.292;2023-07-30T01:34:28;69897.69;;;21.32;70.21
22930;BME280;11630;42.660;23.292;2023-07-30T01:36:59;69897.75;;;21.22;70.56
22930;BME280;11630;42.660;23.292;2023-07-30T01:39:31;69913.98;;;21.33;69.97
22930;BME280;11630;42.660;23.292;2023-07-30T01:42:03;69899.00;;;21.42;69.14
22930;BME280;11630;42.660;23.292;2023-07-30T01:44:34;69924.94;;;21.48;69.04
22930;BME280;11630;42.660;23.292;2023-07-30T01:47:05;69906.52;;;21.32;70.04
22930;BME280;11630;42.660;23.292;2023-07-30T01:49:36;69897.92;;;21.36;69.95
22930;BME280;11630;42.660;23.292;2023-07-30T01:52:08;69914.83;;;21.30;70.08
22930;BME280;11630;42.660;23.292;2023-07-30T01:54:38;69873.30;;;21.03;70.67
22930;BME280;11630;42.660;23.292;2023-07-30T01:57:09;69881.54;;;21.11;70.96
22930;BME280;11630;42.660;23.292;2023-07-30T01:59:40;69866.13;;;21.02;71.38
22930;BME280;11630;42.660;23.292;2023-07-30T02:02:09;69854.41;;;20.80;72.59
22930;BME280;11630;42.660;23.292;2023-07-30T02:04:39;69841.42;;;20.82;72.67
22930;BME280;11630;42.660;23.292;2023-07-30T02:07:09;69850.23;;;20.85;73.22
22930;BME280;11630;42.660;23.292;2023-07-30T02:09:39;69816.77;;;20.47;75.24
22930;BME280;11630;42.660;23.292;2023-07-30T02:12:10;69789.26;;;20.37;75.25
22930;BME280;11630;42.660;23.292;2023-07-30T02:14:41;69789.53;;;20.36;75.51
22930;BME280;11630;42.660;23.292;2023-07-30T02:17:12;69792.59;;;20.33;76.01
22930;BME280;11630;42.660;23.292;2023-07-30T02:19:42;69785.62;;;20.45;75.89
22930;BME280;11630;42.660;23.292;2023-07-30T02:22:13;69796.66;;;20.45;75.57
22930;BME280;11630;42.660;23.292;2023-07-30T02:24:44;69784.03;;;20.31;76.12
22930;BME280;11630;42.660;23.292;2023-07-30T02:27:16;69798.11;;;20.33;76.70
22930;BME280;11630;42.660;23.292;2023-07-30T02:29:48;69793.64;;;20.41;76.42
22930;BME280;11630;42.660;23.292;2023-07-30T02:32:22;69800.22;;;20.47;76.31
22930;BME280;11630;42.660;23.292;2023-07-30T02:34:52;69802.70;;;20.48;76.38
22930;BME280;11630;42.660;23.292;2023-07-30T02:37:22;69790.67;;;20.30;76.90
22930;BME280;11630;42.660;23.292;2023-07-30T02:39:53;69790.94;;;20.31;77.14
22930;BME280;11630;42.660;23.292;2023-07-30T02:42:24;69790.88;;;20.41;77.51
22930;BME280;11630;42.660;23.292;2023-07-30T02:44:55;69802.70;;;20.48;77.18
22930;BME280;11630;42.660;23.292;2023-07-30T02:47:26;69811.77;;;20.53;77.37
22930;BME280;11630;42.660;23.292;2023-07-30T02:49:57;69803.73;;;20.59;77.25
22930;BME280;11630;42.660;23.292;2023-07-30T02:52:28;69826.62;;;20.64;76.97
22930;BME280;11630;42.660;23.292;2023-07-30T02:54:59;69804.34;;;20.52;77.37
22930;BME280;11630;42.660;23.292;2023-07-30T02:57:30;69818.95;;;20.52;77.52
22930;BME280;11630;42.660;23.292;2023-07-30T03:00:00;69824.94;;;20.65;77.35
22930;BME280;11630;42.660;23.292;2023-07-30T03:02:31;69814.72;;;20.67;77.16
22930;BME280;11630;42.660;23.292;2023-07-30T03:05:02;69836.20;;;20.76;76.45
22930;BME280;11630;42.660;23.292;2023-07-30T03:07:31;69864.59;;;20.83;76.39
22930;BME280;11630;42.660;23.292;2023-07-30T03:10:01;69837.58;;;20.76;76.70
22930;BME280;11630;42.660;23.292;2023-07-30T03:12:31;69846.08;;;20.85;75.95
22930;BME280;11630;42.660;23.292;2023-07-30T03:15:01;69868.72;;;20.88;75.75
22930;BME280;11630;42.660;23.292;2023-07-30T03:17:31;69853.48;;;20.93;75.53
22930;BME280;11630;42.660;23.292;2023-07-30T03:20:03;69817.78;;;20.63;76.58
22930;BME280;11630;42.660;23.292;2023-07-30T03:22:33;69810.73;;;20.44;77.81
22930;BME280;11630;42.660;23.292;2023-07-30T03:25:06;69820.62;;;20.53;77.46
22930;BME280;11630;42.660;23.292;2023-07-30T03:27:37;69826.53;;;20.76;76.52
22930;BME280;11630;42.660;23.292;2023-07-30T03:30:07;69838.40;;;20.78;76.10
22930;BME280;11630;42.660;23.292;2023-07-30T03:32:38;69833.50;;;20.66;76.00
22930;BME280;11630;42.660;23.292;2023-07-30T03:35:09;69827.94;;;20.71;75.59
22930;BME280;11630;42.660;23.292;2023-07-30T03:37:40;69818.88;;;20.64;75.55
22930;BME280;11630;42.660;23.292;2023-07-30T03:40:12;69827.38;;;20.73;75.50
22930;BME280;11630;42.660;23.292;2023-07-30T03:42:42;69844.20;;;20.77;75.36
22930;BME280;11630;42.660;23.292;2023-07-30T03:45:13;69845.02;;;20.79;75.22
22930;BME280;11630;42.660;23.292;2023-07-30T03:47:44;69803.23;;;20.51;76.58
22930;BME280;11630;42.660;23.292;2023-07-30T03:50:15;69805.23;;;20.39;77.33
22930;BME280;11630;42.660;23.292;2023-07-30T03:52:46;69813.13;;;20.55;76.90
22930;BME280;11630;42.660;23.292;2023-07-30T03:55:18;69809.05;;;20.48;77.33
22930;BME280;11630;42.660;23.292;2023-07-30T03:57:49;69798.55;;;20.48;77.95
22930;BME280;11630;42.660;23.292;2023-07-30T04:00:19;69816.44;;;20.58;77.73
22930;BME280;11630;42.660;23.292;2023-07-30T04:02:50;69840.08;;;20.72;77.17
22930;BME280;11630;42.660;23.292;2023-07-30T04:05:21;69870.59;;;20.96;76.20
22930;BME280;11630;42.660;23.292;2023-07-30T04:07:52;69893.59;;;21.24;74.96
22930;BME280;11630;42.660;23.292;2023-07-30T04:10:23;69900.49;;;21.24;74.67
22930;BME280;11630;42.660;23.292;2023-07-30T04:12:52;69893.26;;;21.33;74.19
22930;BME280;11630;42.660;23.292;2023-07-30T04:15:23;69911.13;;;21.45;73.71
22930;BME280;11630;42.660;23.292;2023-07-30T04:17:54;69928.50;;;21.55;73.42
22930;BME280;11630;42.660;23.292;2023-07-30T04:20:25;69947.22;;;21.64;73.59
22930;BME280;11630;42.660;23.292;2023-07-30T04:22:55;69949.50;;;21.90;73.21
22930;BME280;11630;42.660;23.292;2023-07-30T04:25:26;69980.93;;;22.03;73.07
22930;BME280;11630;42.660;23.292;2023-07-30T04:27:58;70007.36;;;22.20;72.29
22930;BME280;11630;42.660;23.292;2023-07-30T04:30:29;70009.14;;;22.06;72.49
22930;BME280;11630;42.660;23.292;2023-07-30T04:33:00;69953.72;;;21.82;73.57
22930;BME280;11630;42.660;23.292;2023-07-30T04:35:31;69962.55;;;21.85;73.87
22930;BME280;11630;42.660;23.292;2023-07-30T04:38:02;69963.39;;;21.82;73.74
22930;BME280;11630;42.660;23.292;2023-07-30T04:40:33;69942.44;;;21.73;74.42
22930;BME280;11630;42.660;23.292;2023-07-30T04:43:04;69931.50;;;21.59;75.45
22930;BME280;11630;42.660;23.292;2023-07-30T04:45:34;69931.80;;;21.55;75.20
22930;BME280;11630;42.660;23.292;2023-07-30T04:48:05;69930.16;;;21.51;75.14
22930;BME280;11630;42.660;23.292;2023-07-30T04:50:36;69921.58;;;21.55;75.25
22930;BME280;11630;42.660;23.292;2023-07-30T04:53:07;69928.19;;;21.58;75.64
22930;BME280;11630;42.660;23.292;2023-07-30T04:55:39;69990.05;;;22.05;73.63
22930;BME280;11630;42.660;23.292;2023-07-30T04:58:10;69980.88;;;22.08;73.10
22930;BME280;11630;42.660;23.292;2023-07-30T05:00:41;69995.70;;;22.24;72.78
22930;BME280;11630;42.660;23.292;2023-07-30T05:03:12;70075.36;;;22.70;71.09
22930;BME280;11630;42.660;23.292;2023-07-30T05:05:43;70051.05;;;22.63;70.46
22930;BME280;11630;42.660;23.292;2023-07-30T05:08:14;70095.31;;;23.04;69.22
22930;BME280;11630;42.660;23.292;2023-07-30T05:10:45;70078.44;;;22.98;68.78
22930;BME280;11630;42.660;23.292;2023-07-30T05:13:16;70122.22;;;23.33;67.77
22930;BME280;11630;42.660;23.292;2023-07-30T05:15:46;70148.94;;;23.51;67.02
22930;BME280;11630;42.660;23.292;2023-07-30T05:18:17;70143.95;;;23.49;66.30
22930;BME280;11630;42.660;23.292;2023-07-30T05:20:48;70171.81;;;23.68;65.80
22930;BME280;11630;42.660;23.292;2023-07-30T05:23:19;70149.98;;;23.57;66.21
22930;BME280;11630;42.660;23.292;2023-07-30T05:25:49;70131.72;;;23.25;67.08
22930;BME280;11630;42.660;23.292;2023-07-30T05:28:19;70183.89;;;23.82;65.42
22930;BME280;11630;42.660;23.292;2023-07-30T05:30:50;70159.01;;;23.43;66.54
22930;BME280;11630;42.660;23.292;2023-07-30T05:33:21;70159.01;;;23.43;66.54
22930;BME280;11630;42.660;23.292;2023-07-30T05:35:52;70153.66;;;23.49;66.16
22930;BME280;11630;42.660;23.292;2023-07-30T05:38:24;70211.04;;;24.15;64.06
22930;BME280;11630;42.660;23.292;2023-07-30T05:40:55;70223.84;;;24.14;63.34
22930;BME280;11630;42.660;23.292;2023-07-30T05:43:25;70233.25;;;24.15;62.92
22930;BME280;11630;42.660;23.292;2023-07-30T05:45:55;70231.64;;;24.11;62.95
22930;BME280;11630;42.660;23.292;2023-07-30T05:48:25;70190.92;;;23.72;65.00
22930;BME280;11630;42.660;23.292;2023-07-30T05:50:57;70184.17;;;23.83;64.82
22930;BME280;11630;42.660;23.292;2023-07-30T05:53:28;70172.25;;;23.81;64.92
22930;BME280;11630;42.660;23.292;2023-07-30T05:55:59;70241.46;;;24.27;63.74
22930;BME280;11630;42.660;23.292;2023-07-30T05:58:30;70262.38;;;24.49;62.78
22930;BME280;11630;42.660;23.292;2023-07-30T06:01:01;70229.28;;;24.24;63.42
22930;BME280;11630;42.660;23.292;2023-07-30T06:03:32;70275.24;;;24.67;62.71
22930;BME280;11630;42.660;23.292;2023-07-30T06:06:03;70241.30;;;24.45;62.71
22930;BME280;11630;42.660;23.292;2023-07-30T06:08:33;70271.00;;;24.74;62.00
22930;BME280;11630;42.660;23.292;2023-07-30T06:11:04;70272.30;;;24.58;61.89
22930;BME280;11630;42.660;23.292;2023-07-30T06:13:34;70323.56;;;24.99;60.85
22930;BME280;11630;42.660;23.292;2023-07-30T06:16:05;70320.50;;;24.97;60.49
22930;BME280;11630;42.660;23.292;2023-07-30T06:18:36;70338.08;;;25.21;59.48
22930;BME280;11630;42.660;23.292;2023-07-30T06:21:07;70321.55;;;25.03;59.73
22930;BME280;11630;42.660;23.292;2023-07-30T06:23:38;70333.77;;;25.04;59.21
22930;BME280;11630;42.660;23.292;2023-07-30T06:26:09;70356.70;;;25.21;58.29
22930;BME280;11630;42.660;23.292;2023-07-30T06:28:43;70370.13;;;25.40;57.96
22930;BME280;11630;42.660;23.292;2023-07-30T06:31:14;70382.56;;;25.71;56.42
22930;BME280;11630;42.660;23.292;2023-07-30T06:33:45;70456.14;;;26.15;54.81
22930;BME280;11630;42.660;23.292;2023-07-30T06:36:15;70427.73;;;25.90;54.74
22930;BME280;11630;42.660;23.292;2023-07-30T06:38:46;70432.95;;;25.96;54.52
22930;BME280;11630;42.660;23.292;2023-07-30T06:41:16;70434.53;;;26.05;53.73
22930;BME280;11630;42.660;23.292;2023-07-30T06:43:47;70404.45;;;25.82;55.27
22930;BME280;11630;42.660;23.292;2023-07-30T06:46:17;70503.06;;;26.54;54.04
22930;BME280;11630;42.660;23.292;2023-07-30T06:48:48;70547.69;;;26.97;52.37
22930;BME280;11630;42.660;23.292;2023-07-30T06:51:27;70574.23;;;27.19;51.32
22930;BME280;11630;42.660;23.292;2023-07-30T06:53:53;70587.72;;;27.32;49.67
22930;BME280;11630;42.660;23.292;2023-07-30T06:56:25;70617.00;;;27.56;49.60
22930;BME280;11630;42.660;23.292;2023-07-30T06:58:56;70629.39;;;27.71;49.23
22930;BME280;11630;42.660;23.292;2023-07-30T07:01:28;70571.98;;;27.19;50.75
22930;BME280;11630;42.660;23.292;2023-07-30T07:03:59;70578.06;;;27.24;49.35
22930;BME280;11630;42.660;23.292;2023-07-30T07:06:30;70597.98;;;27.59;49.02
22930;BME280;11630;42.660;23.292;2023-07-30T07:09:01;70559.86;;;27.08;50.16
22930;BME280;11630;42.660;23.292;2023-07-30T07:11:32;70603.69;;;27.49;49.25
22930;BME280;11630;42.660;23.292;2023-07-30T07:14:02;70626.92;;;27.67;48.96
22930;BME280;11630;42.660;23.292;2023-07-30T07:16:33;70659.50;;;27.97;48.55
22930;BME280;11630;42.660;23.292;2023-07-30T07:19:04;70638.75;;;27.82;48.96
22930;BME280;11630;42.660;23.292;2023-07-30T07:21:35;70635.02;;;27.87;48.87
22930;BME280;11630;42.660;23.292;2023-07-30T07:24:05;70671.34;;;28.08;48.37
22930;BME280;11630;42.660;23.292;2023-07-30T07:26:35;70658.09;;;27.97;48.61
22930;BME280;11630;42.660;23.292;2023-07-30T07:29:05;70597.11;;;27.40;49.31
22930;BME280;11630;42.660;23.292;2023-07-30T07:31:35;70612.52;;;27.57;49.10
22930;BME280;11630;42.660;23.292;2023-07-30T07:34:07;70647.87;;;27.89;48.21
22930;BME280;11630;42.660;23.292;2023-07-30T07:36:38;70658.68;;;27.95;47.92
22930;BME280;11630;42.660;23.292;2023-07-30T07:39:10;70631.35;;;27.71;47.85
22930;BME280;11630;42.660;23.292;2023-07-30T07:41:40;70701.98;;;28.37;46.80
22930;BME280;11630;42.660;23.292;2023-07-30T07:44:10;70779.62;;;29.06;45.97
22930;BME280;11630;42.660;23.292;2023-07-30T07:46:41;70721.59;;;28.54;46.46
22930;BME280;11630;42.660;23.292;2023-07-30T07:49:12;70743.13;;;28.73;45.56
22930;BME280;11630;42.660;23.292;2023-07-30T07:51:43;70764.45;;;28.91;45.72
22930;BME280;11630;42.660;23.292;2023-07-30T07:54:14;70765.77;;;28.96;45.68
22930;BME280;11630;42.660;23.292;2023-07-30T07:56:44;70780.10;;;29.11;44.01
22930;BME280;11630;42.660;23.292;2023-07-30T07:59:15;70805.20;;;29.38;44.05
22930;BME280;11630;42.660;23.292;2023-07-30T08:01:46;70741.44;;;28.74;44.07
22930;BME280;11630;42.660;23.292;2023-07-30T08:04:16;70704.16;;;28.42;45.18
22930;BME280;11630;42.660;23.292;2023-07-30T08:06:50;70783.15;;;29.13;44.41
22930;BME280;11630;42.660;23.292;2023-07-30T08:09:20;70832.77;;;29.65;43.00
22930;BME280;11630;42.660;23.292;2023-07-30T08:11:51;70865.80;;;29.86;41.99
22930;BME280;11630;42.660;23.292;2023-07-30T08:14:22;70896.20;;;30.13;41.44
22930;BME280;11630;42.660;23.292;2023-07-30T08:16:52;70829.91;;;29.51;41.81
22930;BME280;11630;42.660;23.292;2023-07-30T08:19:24;70840.34;;;29.65;41.68
22930;BME280;11630;42.660;23.292;2023-07-30T08:21:57;70896.20;;;30.13;40.80
22930;BME280;11630;42.660;23.292;2023-07-30T08:24:27;70847.59;;;29.67;41.29
22930;BME280;11630;42.660;23.292;2023-07-30T08:26:58;70896.73;;;30.16;40.20
22930;BME280;11630;42.660;23.292;2023-07-30T08:29:29;70830.97;;;29.55;41.18
22930;BME280;11630;42.660;23.292;2023-07-30T08:32:02;70885.16;;;30.03;40.41
22930;BME280;11630;42.660;23.292;2023-07-30T08:34:33;70874.96;;;29.93;40.74
22930;BME280;11630;42.660;23.292;2023-07-30T08:37:04;70887.67;;;30.04;40.21
22930;BME280;11630;42.660;23.292;2023-07-30T08:39:34;70868.05;;;29.85;40.51
22930;BME280;11630;42.660;23.292;2023-07-30T08:42:05;70931.33;;;30.46;39.90
22930;BME280;11630;42.660;23.292;2023-07-30T08:44:36;70998.55;;;31.05;38.68
22930;BME280;11630;42.660;23.292;2023-07-30T08:47:07;70936.03;;;30.49;39.60
22930;BME280;11630;42.660;23.292;2023-07-30T08:49:38;70921.94;;;30.35;39.68
22930;BME280;11630;42.660;23.292;2023-07-30T08:52:09;70923.05;;;30.36;40.29
22930;BME280;11630;42.660;23.292;2023-07-30T08:54:40;71048.91;;;31.50;38.64
22930;BME280;11630;42.660;23.292;2023-07-30T08:57:12;71005.75;;;31.12;39.06
22930;BME280;11630;42.660;23.292;2023-07-30T08:59:50;71086.84;;;31.83;38.25
22930;BME280;11630;42.660;23.292;2023-07-30T09:02:37;71112.55;;;32.10;36.17
22930;BME280;11630;42.660;23.292;2023-07-30T09:04:58;71107.07;;;32.00;37.10
22930;BME280;11630;42.660;23.292;2023-07-30T09:07:28;71104.55;;;31.99;37.30
22930;BME280;11630;42.660;23.292;2023-07-30T09:09:58;71102.31;;;32.00;36.84
22930;BME280;11630;42.660;23.292;2023-07-30T09:12:34;71103.96;;;32.01;36.66
22930;BME280;11630;42.660;23.292;2023-07-30T09:15:07;71136.63;;;32.30;36.54
22930;BME280;11630;42.660;23.292;2023-07-30T09:17:38;71112.28;;;32.08;36.37
22930;BME280;11630;42.660;23.292;2023-07-30T09:20:09;71137.20;;;32.31;35.80
22930;BME280;11630;42.660;23.292;2023-07-30T09:22:40;71212.72;;;33.02;34.83
22930;BME280;11630;42.660;23.292;2023-07-30T09:25:11;71118.38;;;32.14;34.12
22930;BME280;11630;42.660;23.292;2023-07-30T09:27:52;71154.62;;;32.48;32.52
22930;BME280;11630;42.660;23.292;2023-07-30T09:30:24;71167.92;;;32.60;33.97
22930;BME280;11630;42.660;23.292;2023-07-30T09:32:59;71194.59;;;32.79;33.38
22930;BME280;11630;42.660;23.292;2023-07-30T09:35:32;71212.78;;;33.00;33.56
22930;BME280;11630;42.660;23.292;2023-07-30T09:38:03;71277.10;;;33.55;32.34
22930;BME280;11630;42.660;23.292;2023-07-30T09:40:35;71307.80;;;33.86;30.92
22930;BME280;11630;42.660;23.292;2023-07-30T09:43:05;71219.72;;;33.05;31.70
22930;BME280;11630;42.660;23.292;2023-07-30T09:45:37;71223.91;;;33.07;31.58
22930;BME280;11630;42.660;23.292;2023-07-30T09:48:08;71199.73;;;32.89;32.06
22930;BME280;11630;42.660;23.292;2023-07-30T09:50:40;71209.20;;;32.95;31.99
22930;BME280;11630;42.660;23.292;2023-07-30T09:53:13;71293.94;;;33.74;31.15
22930;BME280;11630;42.660;23.292;2023-07-30T09:55:44;71329.44;;;34.06;30.63
22930;BME280;11630;42.660;23.292;2023-07-30T09:58:15;71293.64;;;33.75;31.10
22930;BME280;11630;42.660;23.292;2023-07-30T10:00:49;71379.63;;;34.49;30.06
22930;BME280;11630;42.660;23.292;2023-07-30T10:03:22;71382.39;;;34.52;29.41
22930;BME280;11630;42.660;23.292;2023-07-30T10:05:55;71338.36;;;34.11;30.23
22930;BME280;11630;42.660;23.292;2023-07-30T10:08:25;71287.86;;;33.68;30.16
22930;BME280;11630;42.660;23.292;2023-07-30T10:10:57;71192.34;;;32.79;31.34
22930;BME280;11630;42.660;23.292;2023-07-30T10:13:29;71333.31;;;34.09;30.12
22930;BME280;11630;42.660;23.292;2023-07-30T10:16:00;71406.56;;;34.72;29.70
22930;BME280;11630;42.660;23.292;2023-07-30T10:18:38;71359.98;;;34.31;29.87
22930;BME280;11630;42.660;23.292;2023-07-30T10:21:10;71418.77;;;34.83;29.79
22930;BME280;11630;42.660;23.292;2023-07-30T10:24:01;71420.67;;;34.86;29.62
22930;BME280;11630;42.660;23.292;2023-07-30T10:26:33;71466.67;;;35.30;29.15
22930;BME280;11630;42.660;23.292;2023-07-30T10:29:16;71479.48;;;35.39;28.73
22930;BME280;11630;42.660;23.292;2023-07-30T10:31:54;71398.26;;;34.65;29.73
22930;BME280;11630;42.660;23.292;2023-07-30T10:34:27;71377.10;;;34.48;29.98
22930;BME280;11630;42.660;23.292;2023-07-30T10:37:01;71413.48;;;34.80;29.51
22930;BME280;11630;42.660;23.292;2023-07-30T10:39:33;71495.64;;;35.51;28.27
22930;BME280;11630;42.660;23.292;2023-07-30T10:42:03;71516.92;;;35.74;27.97
22930;BME280;11630;42.660;23.292;2023-07-30T10:44:36;71563.06;;;36.12;27.48
22930;BME280;11630;42.660;23.292;2023-07-30T10:47:06;71576.88;;;36.27;26.98
22930;BME280;11630;42.660;23.292;2023-07-30T10:49:38;71558.58;;;36.11;27.50
22930;BME280;11630;42.660;23.292;2023-07-30T10:52:09;71591.53;;;36.44;27.04
22930;BME280;11630;42.660;23.292;2023-07-30T10:54:40;71606.87;;;36.54;26.72
22930;BME280;11630;42.660;23.292;2023-07-30T10:57:12;71581.58;;;36.33;26.88
22930;BME280;11630;42.660;23.292;2023-07-30T10:59:42;71543.58;;;35.98;27.65
22930;BME280;11630;42.660;23.292;2023-07-30T11:02:14;71596.08;;;36.43;26.98
22930;BME280;11630;42.660;23.292;2023-07-30T11:04:46;71632.91;;;36.80;26.59
22930;BME280;11630;42.660;23.292;2023-07-30T11:07:18;71654.33;;;36.98;26.53
22930;BME280;11630;42.660;23.292;2023-07-30T11:09:59;71570.16;;;36.24;26.76
22930;BME280;11630;42.660;23.292;2023-07-30T11:12:33;71593.55;;;36.42;26.62
22930;BME280;11630;42.660;23.292;2023-07-30T11:15:05;71577.69;;;36.29;26.86
22930;BME280;11630;42.660;23.292;2023-07-30T11:17:35;71639.39;;;36.82;25.84
22930;BME280;11630;42.660;23.292;2023-07-30T11:20:07;71693.84;;;37.31;25.17
22930;BME280;11630;42.660;23.292;2023-07-30T11:22:38;71639.88;;;36.85;26.29
22930;BME280;11630;42.660;23.292;2023-07-30T11:25:18;71551.35;;;36.05;26.65
22930;BME280;11630;42.660;23.292;2023-07-30T11:27:50;71567.45;;;36.19;26.63
22930;BME280;11630;42.660;23.292;2023-07-30T11:30:19;71569.62;;;36.23;26.59
22930;BME280;11630;42.660;23.292;2023-07-30T11:32:50;71532.45;;;35.88;27.01
22930;BME280;11630;42.660;23.292;2023-07-30T11:35:21;71516.73;;;35.70;27.23
22930;BME280;11630;42.660;23.292;2023-07-30T11:37:52;71521.38;;;35.78;27.24
22930;BME280;11630;42.660;23.292;2023-07-30T11:40:24;71602.67;;;36.52;26.53
22930;BME280;11630;42.660;23.292;2023-07-30T11:42:55;71651.31;;;36.94;26.09
22930;BME280;11630;42.660;23.292;2023-07-30T11:45:26;71541.92;;;35.96;27.09
22930;BME280;11630;42.660;23.292;2023-07-30T11:48:10;71544.70;;;35.99;27.01
22930;BME280;11630;42.660;23.292;2023-07-30T11:50:51;71590.72;;;36.42;26.83
22930;BME280;11630;42.660;23.292;2023-07-30T11:53:21;71726.56;;;37.63;25.45
22930;BME280;11630;42.660;23.292;2023-07-30T11:55:52;71700.77;;;37.38;25.61
22930;BME280;11630;42.660;23.292;2023-07-30T11:58:24;71743.55;;;37.76;25.23
22930;BME280;11630;42.660;23.292;2023-07-30T12:00:56;71677.97;;;37.18;25.79
22930;BME280;11630;42.660;23.292;2023-07-30T12:03:27;71789.98;;;38.17;24.99
22930;BME280;11630;42.660;23.292;2023-07-30T12:05:58;71811.91;;;38.38;24.30
22930;BME280;11630;42.660;23.292;2023-07-30T12:08:30;71823.58;;;38.48;24.27
22930;BME280;11630;42.660;23.292;2023-07-30T12:11:02;71799.13;;;38.26;24.47
22930;BME280;11630;42.660;23.292;2023-07-30T12:13:33;71700.50;;;37.37;25.18
22930;BME280;11630;42.660;23.292;2023-07-30T12:16:02;71688.52;;;37.27;25.24
22930;BME280;11630;42.660;23.292;2023-07-30T12:18:34;71606.08;;;36.52;25.82
22930;BME280;11630;42.660;23.292;2023-07-30T12:21:05;71564.05;;;36.18;26.27
22930;BME280;11630;42.660;23.292;2023-07-30T12:23:37;71461.19;;;35.23;27.14
22930;BME280;11630;42.660;23.292;2023-07-30T12:26:08;71525.80;;;35.82;26.53
22930;BME280;11630;42.660;23.292;2023-07-30T12:28:38;71600.78;;;36.49;25.77
22930;BME280;11630;42.660;23.292;2023-07-30T12:31:09;71609.91;;;36.58;25.63
22930;BME280;11630;42.660;23.292;2023-07-30T12:33:40;71470.13;;;35.28;26.93
22930;BME280;11630;42.660;23.292;2023-07-30T12:36:12;71435.90;;;35.01;27.57
22930;BME280;11630;42.660;23.292;2023-07-30T12:38:41;71488.67;;;35.46;27.22
22930;BME280;11630;42.660;23.292;2023-07-30T12:41:13;71460.63;;;35.22;27.86
22930;BME280;11630;42.660;23.292;2023-07-30T12:43:43;71471.48;;;35.30;27.75
22930;BME280;11630;42.660;23.292;2023-07-30T12:46:14;71550.54;;;36.03;26.81
22930;BME280;11630;42.660;23.292;2023-07-30T12:48:48;71589.34;;;36.40;26.46
22930;BME280;11630;42.660;23.292;2023-07-30T12:51:20;71512.25;;;35.68;26.89
22930;BME280;11630;42.660;23.292;2023-07-30T12:53:51;71489.20;;;35.49;27.40
22930;BME280;11630;42.660;23.292;2023-07-30T12:56:21;71577.69;;;36.29;26.38
22930;BME280;11630;42.660;23.292;2023-07-30T12:58:52;71520.56;;;35.76;26.68
22930;BME280;11630;42.660;23.292;2023-07-30T13:01:24;71468.59;;;35.33;27.29
22930;BME280;11630;42.660;23.292;2023-07-30T13:03:56;71466.97;;;35.29;27.60
22930;BME280;11630;42.660;23.292;2023-07-30T13:06:28;71450.33;;;35.14;27.17
22930;BME280;11630;42.660;23.292;2023-07-30T13:08:59;71410.45;;;34.76;28.06
22930;BME280;11630;42.660;23.292;2023-07-30T13:11:30;71457.01;;;35.20;27.58